Sturgeon Bay, WI

3:28 PM CST on March 01, 2015 (GMT -0600)
Door County Cherryland | Change Station
CLOSE
Current Station
Airport
Location: Sturgeon Bay,
Elevation: 725 ft
Nearby Weather Stations

Elev 725 ft 44.84 °N, 87.42 °W | Updated 13 minutes ago

Partly Cloudy
Partly Cloudy
25 °F
Feels Like 13 °F
N
14
Wind Variable Wind from SW

Today
High -- | Low -- °F
--% Chance of Precip.
Yesterday
High -- | Low -- °F
Precip. -- in
6:27 AM 5:36 PM
Waxing Gibbous, 87% visible
Pressure 30.16 in
Visibility 10.0 miles
Clouds Scattered Clouds 11000 ft
Windchill 13 °F
Dew Point 16 °F
Humidity 69%
Rainfall 0.00 in
Snow Depth Not available.
UV 1 out of 12
Pollen .30 out of 12
Air Quality Not available.
Flu Activity Not available.
METAR KSUE 012115Z AUTO 22012KT 10SM SCT110 M04/M09 A3016 RMK AO1

More Conditions Fewer Conditions

Pressure 30.16 in
Visibility 10.0 miles
Clouds Scattered Clouds 11000 ft
Windchill 13 °F
Dew Point 16 °F
Humidity 69%
Rainfall 0.00 in
Snow Depth Not available.
UV 1 out of 12
Pollen .30 out of 12
Air Quality Not available.
Flu Activity Not available.
METAR KSUE 012115Z AUTO 22012KT 10SM SCT110 M04/M09 A3016 RMK AO1

More Conditions Fewer Conditions

10-Day Weather Forecast

Almanac

Astronomy

Mar. 01, 2015 Rise Set
Actual Time
Civil Twilight
Nautical Twilight
Astronomical Twilight
Moon
Length of Visible Light
Length of Day
Tomorrow will be .
, % of the Moon is Illuminated

Today's Extremes

State Highs State Lows

Community

WunderPhotos

Upload Photos

1,801,563 photos uploaded!

WunderBlogs® & News

Nearby

Air Quality

  Air Quality AQ Index Pollutant
Not available.

Snow Depth

Station Depth Elevation

Earthquake Activity

City Distance Mag. Time & Date
Minimum magnitude displayed is 2.5.

Coastal Water Temperatures

Place Temperature

Nearby Weather Stations